Time;durP1;ratioP1;P1;durP2;ratioP2;P2;SDS_P1;SDS_P2;PMS_P1;PMS_P2;Temp;Humidity;BMP_temperature;BMP_pressure;BME280_temperature;BME280_humidity;BME280_pressure;Samples;Min_cycle;Max_cycle;Signal;HPM_P1;HPM_P2
2023/03/11 00:02:11;;;;;;;;;;;;;;;11.45;53.76;98292.16;5362436;32;35602;-75
2023/03/11 00:05:15;;;;;;;;;;;;;;;11.45;53.38;98278.19;5352304;32;35347;-70
2023/03/11 00:08:18;;;;;;;;;;;;;;;11.51;53.69;98280.34;5331905;32;35500;-72
2023/03/11 00:11:21;;;;;;;;;;;;;;;11.55;52.81;98279.16;5376749;32;35806;-62
2023/03/11 00:14:23;;;;;;;;;;;;;;;11.04;54.77;98277.72;5345952;32;36123;-73
2023/03/11 00:17:25;;;;;;;;;;;;;;;11.31;53.38;98274.81;5365999;32;35835;-73
2023/03/11 00:20:28;;;;;;;;;;;;;;;11.25;53.69;98279.69;5366932;32;35150;-73
2023/03/11 00:23:31;;;;;;;;;;;;;;;11.37;53.35;98276.97;5365253;32;37726;-73
2023/03/11 00:26:33;;;;;;;;;;;;;;;11.46;53.20;98267.53;5372595;32;35918;-70
2023/03/11 00:29:35;;;;;;;;;;;;;;;11.18;53.32;98266.16;5350642;32;35721;-61
2023/03/11 00:32:37;;;;;;;;;;;;;;;11.25;53.20;98256.84;5367851;32;34808;-61
2023/03/11 00:35:39;;;;;;;;;;;;;;;11.10;53.33;98258.03;5365725;32;44727;-61
2023/03/11 00:38:41;;;;;;;;;;;;;;;11.25;52.98;98270.00;5372842;32;37416;-62
2023/03/11 00:41:43;;;;;;;;;;;;;;;11.20;53.04;98277.41;5358635;32;37005;-73
2023/03/11 00:44:45;;;;;;;;;;;;;;;11.57;51.17;98264.94;5357389;32;35392;-61
2023/03/11 00:47:47;;;;;;;;;;;;;;;11.39;51.60;98277.69;5380039;32;36163;-72
2023/03/11 00:50:49;;;;;;;;;;;;;;;11.11;51.71;98267.59;5342146;32;35552;-62
2023/03/11 00:53:51;;;;;;;;;;;;;;;11.04;50.96;98279.50;5375502;32;35760;-72
2023/03/11 00:56:53;;;;;;;;;;;;;;;11.61;49.68;98266.38;5358951;32;36028;-61
2023/03/11 00:59:55;;;;;;;;;;;;;;;11.31;50.10;98266.91;5361760;32;35507;-60
2023/03/11 01:02:57;;;;;;;;;;;;;;;11.12;50.53;98280.59;5349223;32;35586;-61
2023/03/11 01:05:59;;;;;;;;;;;;;;;11.08;50.65;98280.97;5319299;32;35290;-72
2023/03/11 01:09:01;;;;;;;;;;;;;;;11.28;50.78;98279.47;5376207;32;34784;-61
2023/03/11 01:12:02;;;;;;;;;;;;;;;11.06;51.04;98272.34;5354369;32;36294;-61
2023/03/11 01:15:05;;;;;;;;;;;;;;;11.19;51.29;98270.47;5384972;32;37345;-71
2023/03/11 01:18:07;;;;;;;;;;;;;;;10.90;52.01;98266.56;5357458;32;35613;-71
2023/03/11 01:21:08;;;;;;;;;;;;;;;11.24;51.19;98257.81;5373170;32;44701;-62
2023/03/11 01:24:10;;;;;;;;;;;;;;;11.28;50.58;98263.69;5370214;32;34670;-61
2023/03/11 01:27:12;;;;;;;;;;;;;;;10.93;51.92;98253.19;5356354;32;34831;-71
2023/03/11 01:30:16;;;;;;;;;;;;;;;11.31;51.01;98277.44;5383170;32;36216;-61
2023/03/11 01:33:18;;;;;;;;;;;;;;;10.72;52.15;98255.59;5350836;32;34920;-60
2023/03/11 01:36:20;;;;;;;;;;;;;;;10.81;51.38;98258.38;5353734;32;35707;-62
2023/03/11 01:39:22;;;;;;;;;;;;;;;10.58;52.02;98248.75;5365050;32;35640;-72
2023/03/11 01:42:24;;;;;;;;;;;;;;;11.04;51.02;98253.22;5372369;32;35946;-72
2023/03/11 01:45:35;;;;;;;;;;;;;;;10.95;51.09;98251.25;5353638;32;35651;-71
2023/03/11 01:48:37;;;;;;;;;;;;;;;10.43;51.92;98234.94;5337122;32;35034;-63
2023/03/11 01:51:40;;;;;;;;;;;;;;;11.03;50.29;98234.00;5371567;32;46798;-72
2023/03/11 01:54:42;;;;;;;;;;;;;;;10.91;49.99;98252.47;5370743;32;36787;-71
2023/03/11 01:57:44;;;;;;;;;;;;;;;10.84;50.15;98247.66;5370004;32;37254;-60
2023/03/11 02:00:46;;;;;;;;;;;;;;;11.02;49.32;98252.50;5335781;32;35366;-69
2023/03/11 02:03:48;;;;;;;;;;;;;;;10.79;49.50;98259.47;5364181;32;35881;-71
2023/03/11 02:06:50;;;;;;;;;;;;;;;10.87;50.02;98256.25;5336132;32;38692;-61
2023/03/11 02:09:54;;;;;;;;;;;;;;;11.20;49.14;98276.56;5342692;32;37039;-63
2023/03/11 02:12:56;;;;;;;;;;;;;;;10.99;49.17;98274.59;5373720;32;35227;-60
2023/03/11 02:15:59;;;;;;;;;;;;;;;10.77;49.33;98280.59;5348084;32;35341;-61
2023/03/11 02:19:04;;;;;;;;;;;;;;;10.55;49.04;98262.09;5373473;32;36113;-71
2023/03/11 02:22:05;;;;;;;;;;;;;;;10.76;48.63;98278.94;5358173;32;35864;-72
2023/03/11 02:25:23;;;;;;;;;;;;;;;10.69;48.40;98271.59;5379801;32;34735;-62
2023/03/11 02:28:24;;;;;;;;;;;;;;;10.82;47.70;98262.72;5364253;32;37587;-69
2023/03/11 02:31:26;;;;;;;;;;;;;;;10.47;48.13;98260.00;5339830;32;36843;-62
2023/03/11 02:34:30;;;;;;;;;;;;;;;10.51;47.96;98268.53;5370102;32;35642;-71
2023/03/11 02:37:32;;;;;;;;;;;;;;;10.69;47.46;98258.44;5349131;32;35583;-71
2023/03/11 02:40:36;;;;;;;;;;;;;;;10.79;47.42;98278.69;5370321;32;35739;-61
2023/03/11 02:43:41;;;;;;;;;;;;;;;10.47;47.92;98270.53;5346598;32;37969;-70
2023/03/11 02:46:43;;;;;;;;;;;;;;;10.06;48.96;98254.25;5335674;32;35001;-61
2023/03/11 02:49:45;;;;;;;;;;;;;;;10.69;47.93;98264.56;5364498;32;33511;-62
2023/03/11 02:52:48;;;;;;;;;;;;;;;10.23;48.50;98262.59;5340709;32;35977;-73
2023/03/11 02:55:50;;;;;;;;;;;;;;;10.53;47.98;98264.00;5369339;32;38456;-69
2023/03/11 02:58:52;;;;;;;;;;;;;;;10.67;47.67;98271.69;5361912;32;35810;-63
2023/03/11 03:01:54;;;;;;;;;;;;;;;10.40;48.47;98281.59;5351817;32;36093;-73
2023/03/11 03:04:56;;;;;;;;;;;;;;;10.48;48.31;98285.31;5343572;32;35904;-69
2023/03/11 03:07:58;;;;;;;;;;;;;;;10.75;47.70;98281.66;5350094;32;36003;-73
2023/03/11 03:11:00;;;;;;;;;;;;;;;10.62;47.56;98297.47;5367928;32;35995;-62
2023/03/11 03:14:01;;;;;;;;;;;;;;;10.73;47.44;98300.16;5351301;32;35299;-73
2023/03/11 03:17:03;;;;;;;;;;;;;;;10.64;47.33;98300.84;5375797;32;36324;-63
2023/03/11 03:20:10;;;;;;;;;;;;;;;10.73;46.08;98286.19;5362390;32;34854;-73
2023/03/11 03:23:11;;;;;;;;;;;;;;;10.32;47.16;98307.56;5367997;32;44632;-72
2023/03/11 03:26:13;;;;;;;;;;;;;;;10.12;47.10;98314.19;5364663;32;36197;-62
2023/03/11 03:29:15;;;;;;;;;;;;;;;10.43;46.11;98307.59;5344084;32;35407;-72
2023/03/11 03:32:17;;;;;;;;;;;;;;;10.46;45.71;98307.41;5383534;32;35541;-62
2023/03/11 03:35:19;;;;;;;;;;;;;;;10.67;45.40;98305.84;5354060;32;35160;-72
2023/03/11 03:38:21;;;;;;;;;;;;;;;10.46;45.20;98307.41;5368558;32;35870;-63
2023/03/11 03:41:23;;;;;;;;;;;;;;;10.39;44.63;98332.44;5366443;32;35519;-72
2023/03/11 03:44:25;;;;;;;;;;;;;;;10.30;43.36;98326.03;5365622;32;36324;-68
2023/03/11 03:47:27;;;;;;;;;;;;;;;10.49;42.16;98302.75;5349192;32;35409;-72
2023/03/11 03:50:29;;;;;;;;;;;;;;;10.27;42.36;98321.00;5358520;32;35977;-72
2023/03/11 03:53:32;;;;;;;;;;;;;;;10.31;41.50;98325.09;5377584;32;35505;-71
2023/03/11 03:56:34;;;;;;;;;;;;;;;10.24;41.65;98295.81;5352445;32;35519;-69
2023/03/11 03:59:36;;;;;;;;;;;;;;;9.72;41.88;98337.91;5363142;32;36316;-73
2023/03/11 04:02:38;;;;;;;;;;;;;;;9.84;41.57;98341.47;5344711;32;35200;-72
2023/03/11 04:05:40;;;;;;;;;;;;;;;9.68;41.90;98332.03;5360525;32;44696;-72
2023/03/11 04:08:42;;;;;;;;;;;;;;;10.00;41.01;98350.00;5354563;32;36267;-73
2023/03/11 04:11:44;;;;;;;;;;;;;;;9.46;42.10;98353.59;5347447;32;35100;-62
2023/03/11 04:14:46;;;;;;;;;;;;;;;9.31;43.01;98370.37;5371842;32;35628;-63
2023/03/11 04:17:47;;;;;;;;;;;;;;;9.22;43.40;98350.84;5348939;32;34706;-72
2023/03/11 04:20:49;;;;;;;;;;;;;;;9.69;42.70;98387.97;5366496;32;35466;-73
2023/03/11 04:23:51;;;;;;;;;;;;;;;9.20;43.94;98386.78;5343459;32;35682;-61
2023/03/11 04:26:53;;;;;;;;;;;;;;;9.33;43.61;98402.56;5358421;32;35300;-68
2023/03/11 04:29:55;;;;;;;;;;;;;;;9.35;43.55;98407.72;5356453;32;35584;-70
2023/03/11 04:32:57;;;;;;;;;;;;;;;9.25;43.83;98411.88;5354389;32;35588;-72
2023/03/11 04:35:59;;;;;;;;;;;;;;;9.22;43.81;98412.91;5366320;32;36064;-62
2023/03/11 04:39:00;;;;;;;;;;;;;;;10.04;41.92;98402.13;5354163;32;35996;-72
2023/03/11 04:42:02;;;;;;;;;;;;;;;10.17;41.18;98412.62;5370123;32;35564;-72
2023/03/11 04:45:05;;;;;;;;;;;;;;;9.42;41.51;98415.09;5351490;32;35692;-73
2023/03/11 04:48:07;;;;;;;;;;;;;;;9.01;37.37;98457.03;5352720;32;34814;-61
2023/03/11 04:51:09;;;;;;;;;;;;;;;9.35;34.87;98416.41;5348466;32;47981;-61
2023/03/11 04:54:11;;;;;;;;;;;;;;;9.17;34.02;98415.84;5360473;32;36281;-72
2023/03/11 04:57:13;;;;;;;;;;;;;;;8.66;34.59;98414.75;5346495;32;846800;-61
2023/03/11 05:00:15;;;;;;;;;;;;;;;8.36;34.78;98404.38;5351914;32;36331;-68
2023/03/11 05:03:17;;;;;;;;;;;;;;;8.75;35.02;98429.88;5375370;32;36079;-70
2023/03/11 05:06:19;;;;;;;;;;;;;;;8.85;34.89;98440.63;5331606;32;36045;-62
2023/03/11 05:09:21;;;;;;;;;;;;;;;8.88;34.96;98437.78;5373817;32;35417;-69
2023/03/11 05:12:23;;;;;;;;;;;;;;;8.95;35.14;98441.72;5353864;32;35893;-70
2023/03/11 05:15:25;;;;;;;;;;;;;;;8.60;36.22;98449.16;5363378;32;35374;-62
2023/03/11 05:18:27;;;;;;;;;;;;;;;8.89;36.45;98447.38;5370357;32;36008;-68
2023/03/11 05:21:29;;;;;;;;;;;;;;;8.71;36.72;98448.50;5355551;32;36306;-63
2023/03/11 05:24:30;;;;;;;;;;;;;;;8.12;37.51;98457.25;5376665;32;35202;-71
2023/03/11 05:27:32;;;;;;;;;;;;;;;8.32;37.55;98437.75;5345268;32;36418;-61
2023/03/11 05:30:34;;;;;;;;;;;;;;;8.55;36.96;98438.97;5374600;32;36098;-68
2023/03/11 05:33:36;;;;;;;;;;;;;;;7.50;39.24;98443.47;5365669;32;36148;-61
2023/03/11 05:36:38;;;;;;;;;;;;;;;7.97;38.96;98473.00;5344110;32;47359;-61
2023/03/11 05:39:40;;;;;;;;;;;;;;;7.78;39.06;98474.06;5382159;32;36157;-61
2023/03/11 05:42:42;;;;;;;;;;;;;;;7.58;39.34;98488.31;5364387;32;35517;-61
2023/03/11 05:45:44;;;;;;;;;;;;;;;7.59;38.82;98482.13;5375110;32;35364;-62
2023/03/11 05:48:46;;;;;;;;;;;;;;;7.28;39.55;98487.44;5361553;32;35581;-61
2023/03/11 05:51:48;;;;;;;;;;;;;;;8.36;37.57;98503.84;5366925;32;35630;-67
2023/03/11 05:54:50;;;;;;;;;;;;;;;8.02;37.96;98508.44;5371896;32;36704;-73
2023/03/11 05:57:52;;;;;;;;;;;;;;;7.97;38.42;98507.84;5347607;32;35544;-71
2023/03/11 06:00:54;;;;;;;;;;;;;;;7.99;38.46;98507.78;5387753;32;35964;-70
2023/03/11 06:03:56;;;;;;;;;;;;;;;8.11;38.04;98494.84;5352297;32;35704;-71
2023/03/11 06:06:58;;;;;;;;;;;;;;;8.36;37.73;98509.09;5362460;32;36544;-71
2023/03/11 06:10:01;;;;;;;;;;;;;;;7.79;38.29;98537.69;5366744;32;36234;-71
2023/03/11 06:13:02;;;;;;;;;;;;;;;7.28;38.26;98524.03;5377775;32;35524;-72
2023/03/11 06:16:05;;;;;;;;;;;;;;;6.80;38.53;98528.34;5365207;32;35892;-61
2023/03/11 06:19:06;;;;;;;;;;;;;;;6.89;38.64;98520.03;5340897;32;35630;-61
2023/03/11 06:22:08;;;;;;;;;;;;;;;7.38;38.08;98532.19;5372330;32;43531;-71
2023/03/11 06:25:11;;;;;;;;;;;;;;;7.46;37.88;98530.81;5366232;32;35189;-61
2023/03/11 06:28:13;;;;;;;;;;;;;;;7.72;37.55;98538.97;5384235;32;36157;-61
2023/03/11 06:31:16;;;;;;;;;;;;;;;7.79;37.06;98542.91;5356620;32;35355;-71
2023/03/11 06:34:18;;;;;;;;;;;;;;;7.96;36.80;98595.12;5370573;32;35366;-65
2023/03/11 06:37:22;;;;;;;;;;;;;;;7.65;37.27;98563.78;5382082;32;35710;-70
2023/03/11 06:40:24;;;;;;;;;;;;;;;7.70;37.45;98569.59;5354867;32;36174;-61
2023/03/11 06:43:26;;;;;;;;;;;;;;;7.46;38.54;98575.25;5364163;32;34900;-61
2023/03/11 06:46:28;;;;;;;;;;;;;;;7.66;38.15;98576.75;5362576;32;34931;-61
2023/03/11 06:49:29;;;;;;;;;;;;;;;7.43;37.52;98571.97;5368569;32;35748;-70
2023/03/11 06:52:31;;;;;;;;;;;;;;;7.52;37.93;98595.81;5353818;32;36248;-61
2023/03/11 06:55:34;;;;;;;;;;;;;;;7.48;37.15;98611.78;5358225;32;35935;-67
2023/03/11 06:58:36;;;;;;;;;;;;;;;7.39;37.81;98601.81;5373698;32;35196;-61
2023/03/11 07:01:38;;;;;;;;;;;;;;;7.67;37.26;98606.41;5352528;32;38344;-70
2023/03/11 07:04:40;;;;;;;;;;;;;;;7.28;37.67;98613.72;5357052;32;35986;-71
2023/03/11 07:07:41;;;;;;;;;;;;;;;7.21;37.64;98624.53;5349468;32;35522;-62
2023/03/11 07:10:44;;;;;;;;;;;;;;;6.56;38.95;98600.09;5373620;32;35123;-62
2023/03/11 07:13:46;;;;;;;;;;;;;;;7.07;37.98;98615.66;5355343;32;35374;-62
2023/03/11 07:16:47;;;;;;;;;;;;;;;6.66;38.48;98606.56;5354531;32;35336;-61
2023/03/11 07:19:49;;;;;;;;;;;;;;;7.13;37.41;98605.84;5369417;32;35554;-61
2023/03/11 07:22:51;;;;;;;;;;;;;;;6.98;37.33;98597.03;5341358;32;36740;-62
2023/03/11 07:25:54;;;;;;;;;;;;;;;6.78;37.30;98605.94;5386497;32;35469;-62
2023/03/11 07:28:56;;;;;;;;;;;;;;;6.86;37.29;98616.81;5345004;32;36736;-73
2023/03/11 07:31:58;;;;;;;;;;;;;;;6.38;37.46;98610.56;5376758;32;35650;-72
2023/03/11 07:35:00;;;;;;;;;;;;;;;6.51;37.57;98616.88;5348345;32;35503;-63
2023/03/11 07:38:02;;;;;;;;;;;;;;;6.30;37.86;98625.75;5353041;32;35151;-61
2023/03/11 07:41:04;;;;;;;;;;;;;;;6.34;37.74;98632.50;5362869;32;37526;-62
2023/03/11 07:44:06;;;;;;;;;;;;;;;6.75;37.32;98660.91;5350445;32;35510;-70
2023/03/11 07:47:10;;;;;;;;;;;;;;;6.29;38.04;98639.72;5381073;32;43639;-62
2023/03/11 07:50:12;;;;;;;;;;;;;;;6.53;37.48;98597.66;5362436;32;36604;-62
2023/03/11 07:53:14;;;;;;;;;;;;;;;7.14;36.70;98633.62;5383812;32;35417;-71
2023/03/11 07:56:16;;;;;;;;;;;;;;;6.81;37.13;98629.25;5353461;32;36475;-71
2023/03/11 07:59:18;;;;;;;;;;;;;;;7.27;36.39;98634.69;5343421;32;35642;-71
2023/03/11 08:02:20;;;;;;;;;;;;;;;6.71;36.75;98636.72;5368369;32;35499;-63
2023/03/11 08:05:22;;;;;;;;;;;;;;;7.03;36.46;98640.28;5340823;32;36020;-71
2023/03/11 08:08:24;;;;;;;;;;;;;;;7.46;35.75;98658.91;5384302;32;35577;-70
2023/03/11 08:11:26;;;;;;;;;;;;;;;7.39;35.78;98694.12;5342643;32;35735;-62
2023/03/11 08:14:28;;;;;;;;;;;;;;;6.91;36.50;98680.09;5373432;32;35340;-62
2023/03/11 08:17:30;;;;;;;;;;;;;;;7.43;35.46;98672.16;5358941;32;35355;-71
2023/03/11 08:20:32;;;;;;;;;;;;;;;7.68;34.81;98704.81;5358244;32;35604;-64
2023/03/11 08:23:34;;;;;;;;;;;;;;;7.36;34.79;98719.59;5358859;32;35928;-63
2023/03/11 08:26:36;;;;;;;;;;;;;;;7.75;34.96;98727.09;5351501;32;34830;-71
2023/03/11 08:29:38;;;;;;;;;;;;;;;7.56;35.11;98724.62;5376234;32;37459;-62
2023/03/11 08:32:40;;;;;;;;;;;;;;;7.80;34.81;98752.09;5363266;32;36066;-70
2023/03/11 08:35:42;;;;;;;;;;;;;;;8.07;34.50;98768.06;5371981;32;36051;-61
2023/03/11 08:38:44;;;;;;;;;;;;;;;7.46;35.40;98768.69;5350217;32;34804;-63
2023/03/11 08:41:46;;;;;;;;;;;;;;;7.13;35.37;98801.78;5356954;32;34944;-61
2023/03/11 08:44:48;;;;;;;;;;;;;;;7.12;35.21;98758.28;5364461;32;34608;-62
2023/03/11 08:47:49;;;;;;;;;;;;;;;7.11;36.02;98772.28;5358541;32;35512;-61
2023/03/11 08:50:51;;;;;;;;;;;;;;;7.44;35.74;98756.63;5368045;32;35762;-71
2023/03/11 08:53:55;;;;;;;;;;;;;;;7.27;36.53;98762.72;5335283;32;36162;-70
2023/03/11 08:57:01;;;;;;;;;;;;;;;8.15;35.22;98734.44;5367413;32;34626;-72
2023/03/11 09:00:04;;;;;;;;;;;;;;;8.62;34.23;98714.41;5363060;32;35474;-68
2023/03/11 09:03:06;;;;;;;;;;;;;;;8.75;34.32;98717.16;5358583;32;35469;-62
2023/03/11 09:06:10;;;;;;;;;;;;;;;9.27;33.49;98714.06;5364865;32;44710;-70
2023/03/11 09:09:12;;;;;;;;;;;;;;;9.30;33.28;98722.59;5352390;32;35307;-62
2023/03/11 09:12:14;;;;;;;;;;;;;;;8.91;33.83;98731.06;5355168;32;35499;-62
2023/03/11 09:15:16;;;;;;;;;;;;;;;8.13;34.30;98733.69;5361950;32;35414;-61
2023/03/11 09:18:18;;;;;;;;;;;;;;;7.95;34.68;98724.25;5377342;32;35404;-62
2023/03/11 09:21:20;;;;;;;;;;;;;;;7.65;35.44;98733.72;5344713;32;35612;-62
2023/03/11 09:24:21;;;;;;;;;;;;;;;7.40;35.99;98735.03;5354273;32;35806;-72
2023/03/11 09:27:23;;;;;;;;;;;;;;;8.13;35.23;98744.16;5385752;32;36087;-72
2023/03/11 09:30:25;;;;;;;;;;;;;;;8.08;34.65;98768.91;5363928;32;35174;-62
2023/03/11 09:33:27;;;;;;;;;;;;;;;7.31;36.43;98743.34;5369467;32;35438;-70
2023/03/11 09:36:29;;;;;;;;;;;;;;;6.89;37.29;98770.75;5330583;32;36472;-70
2023/03/11 09:39:31;;;;;;;;;;;;;;;7.17;36.96;98785.88;5351830;32;35529;-71
2023/03/11 09:42:53;;;;;;;;;;;;;;;7.42;36.39;98754.09;5364750;32;35780;-63
2023/03/11 09:46:18;;;;;;;;;;;;;;;6.97;36.91;98760.75;5342207;32;35430;-72
2023/03/11 09:49:26;;;;;;;;;;;;;;;6.91;37.51;98753.22;5338701;32;35525;-69
2023/03/11 09:52:28;;;;;;;;;;;;;;;6.48;39.05;98775.38;5366987;32;36191;-71
2023/03/11 09:55:30;;;;;;;;;;;;;;;7.23;37.59;98733.31;5366379;32;35488;-61
2023/03/11 09:58:51;;;;;;;;;;;;;;;7.52;36.90;98749.22;5356592;32;36385;-61
2023/03/11 10:01:53;;;;;;;;;;;;;;;7.36;37.37;98743.97;5364030;32;37816;-61
2023/03/11 10:05:00;;;;;;;;;;;;;;;7.05;38.06;98723.78;5352779;32;36042;-62
2023/03/11 10:08:15;;;;;;;;;;;;;;;7.27;38.02;98736.59;5335522;32;36112;-70
2023/03/11 10:11:23;;;;;;;;;;;;;;;6.75;39.25;98765.34;5362907;32;45273;-69
2023/03/11 10:14:43;;;;;;;;;;;;;;;6.88;39.39;98763.81;5360840;32;34926;-68
2023/03/11 10:18:03;;;;;;;;;;;;;;;6.49;39.75;98756.16;5356298;32;44468;-70
2023/03/11 10:21:31;;;;;;;;;;;;;;;6.54;39.26;98753.34;5387701;32;35334;-62
2023/03/11 10:24:45;;;;;;;;;;;;;;;6.33;39.69;98755.22;5345941;32;35056;-62
2023/03/11 10:27:54;;;;;;;;;;;;;;;6.44;39.47;98779.91;5371586;32;45742;-61
2023/03/11 10:30:57;;;;;;;;;;;;;;;6.38;39.53;98789.78;5385171;32;36407;-61
2023/03/11 10:34:00;;;;;;;;;;;;;;;6.28;40.31;98810.22;5361840;32;35584;-68
2023/03/11 10:37:28;;;;;;;;;;;;;;;6.34;39.90;98809.94;5370654;32;35955;-69
2023/03/11 10:40:55;;;;;;;;;;;;;;;6.13;39.96;98819.63;5368636;32;35615;-71
2023/03/11 10:44:14;;;;;;;;;;;;;;;6.55;39.71;98828.13;5358532;32;36047;-62
2023/03/11 10:47:17;;;;;;;;;;;;;;;7.26;38.56;98862.94;5383385;32;44446;-71
2023/03/11 10:50:19;;;;;;;;;;;;;;;7.87;37.66;98849.38;5347853;32;35466;-60
2023/03/11 10:53:21;;;;;;;;;;;;;;;9.50;34.35;98835.00;5368766;32;36405;-61
2023/03/11 10:56:26;;;;;;;;;;;;;;;8.44;35.96;98843.72;5369391;32;35711;-61
2023/03/11 10:59:32;;;;;;;;;;;;;;;8.21;36.72;98858.91;5364967;32;35622;-61
2023/03/11 11:02:37;;;;;;;;;;;;;;;8.92;35.41;98858.50;5357873;32;35794;-71
2023/03/11 11:05:39;;;;;;;;;;;;;;;8.88;34.75;98883.19;5343790;32;46671;-71
2023/03/11 11:08:41;;;;;;;;;;;;;;;9.48;34.26;98859.66;5357387;32;36684;-61
2023/03/11 11:11:59;;;;;;;;;;;;;;;9.80;33.93;98841.16;5370105;32;35317;-71
2023/03/11 11:15:01;;;;;;;;;;;;;;;10.47;32.82;98845.72;5369171;32;35509;-63
2023/03/11 11:18:14;;;;;;;;;;;;;;;10.81;31.96;98836.53;5354179;32;37230;-62
2023/03/11 11:21:25;;;;;;;;;;;;;;;9.61;33.57;98854.53;5340996;32;44415;-60
2023/03/11 11:24:28;;;;;;;;;;;;;;;9.16;35.07;98858.91;5357598;32;35815;-73
2023/03/11 11:27:31;;;;;;;;;;;;;;;8.76;36.44;98869.03;5347881;32;36573;-72
2023/03/11 11:30:33;;;;;;;;;;;;;;;8.67;36.34;98886.06;5378119;32;35904;-71
2023/03/11 11:33:39;;;;;;;;;;;;;;;8.03;36.60;98881.63;5343599;32;35366;-61
2023/03/11 11:36:41;;;;;;;;;;;;;;;7.50;37.56;98885.25;5355075;32;44667;-71
2023/03/11 11:39:50;;;;;;;;;;;;;;;7.66;36.72;98887.09;5372775;32;35568;-70
2023/03/11 11:42:56;;;;;;;;;;;;;;;7.23;38.18;98881.41;5362496;32;35557;-68
2023/03/11 11:46:00;;;;;;;;;;;;;;;7.45;38.07;98884.62;5359463;32;35201;-62
2023/03/11 11:49:08;;;;;;;;;;;;;;;7.89;36.83;98873.69;5356731;32;35572;-62
2023/03/11 11:52:14;;;;;;;;;;;;;;;7.27;37.88;98870.72;5368372;32;44611;-73
2023/03/11 11:55:19;;;;;;;;;;;;;;;7.51;37.16;98894.78;5366582;32;34999;-62
2023/03/11 11:58:21;;;;;;;;;;;;;;;7.95;36.46;98889.06;5350249;32;36775;-63
2023/03/11 12:01:33;;;;;;;;;;;;;;;7.71;36.97;98869.41;5372363;32;36115;-62
2023/03/11 12:05:02;;;;;;;;;;;;;;;8.23;36.09;98890.22;5325237;32;35811;-63
2023/03/11 12:08:16;;;;;;;;;;;;;;;8.64;35.55;98909.81;5367387;32;35652;-62
2023/03/11 12:11:33;;;;;;;;;;;;;;;7.19;36.82;98888.53;5353300;32;35332;-63
2023/03/11 12:14:54;;;;;;;;;;;;;;;7.82;36.22;98869.69;5344456;32;36991;-64
2023/03/11 12:17:59;;;;;;;;;;;;;;;7.75;36.02;98866.56;5382444;32;37120;-62
2023/03/11 12:21:03;;;;;;;;;;;;;;;8.57;34.95;98855.25;5341901;32;35161;-63
2023/03/11 12:24:21;;;;;;;;;;;;;;;8.62;35.13;98846.19;5334518;32;35516;-63
2023/03/11 12:27:27;;;;;;;;;;;;;;;7.75;36.19;98861.31;5369840;32;36483;-72
2023/03/11 12:30:30;;;;;;;;;;;;;;;8.23;35.94;98864.03;5351735;32;35506;-70
2023/03/11 12:33:32;;;;;;;;;;;;;;;7.88;35.62;98878.06;5376071;32;35988;-61
2023/03/11 12:36:38;;;;;;;;;;;;;;;8.13;35.54;98869.78;5358122;32;36003;-61
2023/03/11 12:39:40;;;;;;;;;;;;;;;8.66;34.38;98875.69;5373688;32;47995;-62
2023/03/11 12:42:42;;;;;;;;;;;;;;;8.55;34.81;98905.06;5353956;32;35630;-63
2023/03/11 12:45:51;;;;;;;;;;;;;;;7.73;36.10;98909.38;5353616;32;36407;-61
2023/03/11 12:49:12;;;;;;;;;;;;;;;8.71;34.41;98920.81;5371198;32;35418;-68
2023/03/11 12:52:25;;;;;;;;;;;;;;;10.26;31.78;98889.09;5362680;32;46836;-63
2023/03/11 12:55:29;;;;;;;;;;;;;;;9.92;31.69;98904.25;5369132;32;37302;-62
2023/03/11 12:58:35;;;;;;;;;;;;;;;8.32;34.25;98901.06;5349361;32;37704;-63
2023/03/11 13:01:45;;;;;;;;;;;;;;;8.13;35.18;98950.91;5349416;32;37430;-63
2023/03/11 13:05:07;;;;;;;;;;;;;;;7.88;35.55;98924.31;5354467;32;45129;-63
2023/03/11 13:08:13;;;;;;;;;;;;;;;8.48;35.17;98918.56;5334109;32;45345;-63
2023/03/11 13:11:25;;;;;;;;;;;;;;;8.95;34.45;98921.22;5357963;32;35385;-63
2023/03/11 13:14:31;;;;;;;;;;;;;;;8.82;34.00;98909.72;5339476;32;35804;-73
2023/03/11 13:17:33;;;;;;;;;;;;;;;8.84;33.83;98939.31;5333663;32;35903;-62
2023/03/11 13:20:41;;;;;;;;;;;;;;;8.11;35.05;98978.06;5364460;32;35949;-71
2023/03/11 13:23:43;;;;;;;;;;;;;;;8.93;33.83;98952.75;5349429;32;45241;-73
2023/03/11 13:26:45;;;;;;;;;;;;;;;8.33;34.68;98941.16;5385429;32;35578;-67
2023/03/11 13:29:59;;;;;;;;;;;;;;;7.56;36.08;98954.69;5356560;32;35962;-62
2023/03/11 13:33:07;;;;;;;;;;;;;;;7.62;36.56;98961.41;5354251;32;35532;-62
2023/03/11 13:36:12;;;;;;;;;;;;;;;7.49;36.01;98963.78;5376447;32;44499;-62
2023/03/11 13:39:14;;;;;;;;;;;;;;;7.48;36.37;98978.59;5359904;32;36228;-69
2023/03/11 13:42:25;;;;;;;;;;;;;;;7.71;35.86;99003.63;5368067;32;35417;-62
2023/03/11 13:45:28;;;;;;;;;;;;;;;7.86;36.17;98988.94;5340753;32;35462;-63
2023/03/11 13:48:31;;;;;;;;;;;;;;;7.62;36.09;99011.91;5374475;32;36908;-72
2023/03/11 13:51:41;;;;;;;;;;;;;;;7.46;36.93;99009.19;5351337;32;35750;-62
2023/03/11 13:54:43;;;;;;;;;;;;;;;7.12;37.16;99022.16;5355513;32;45468;-62
2023/03/11 13:57:52;;;;;;;;;;;;;;;8.10;35.65;99020.84;5387166;32;35621;-63
2023/03/11 14:00:55;;;;;;;;;;;;;;;8.70;34.70;99012.56;5342963;32;35323;-70
2023/03/11 14:03:56;;;;;;;;;;;;;;;8.28;34.67;99038.25;5375388;32;35436;-62
2023/03/11 14:06:58;;;;;;;;;;;;;;;7.88;35.38;99034.19;5348831;32;35672;-63
2023/03/11 14:10:14;;;;;;;;;;;;;;;7.39;36.15;99026.09;5372316;32;35592;-71
2023/03/11 14:13:17;;;;;;;;;;;;;;;7.40;36.27;99050.47;5381542;32;44666;-63
2023/03/11 14:16:20;;;;;;;;;;;;;;;7.12;36.74;99054.38;5354812;32;35100;-70
2023/03/11 14:19:22;;;;;;;;;;;;;;;6.97;37.20;99057.69;5358590;32;35676;-73
2023/03/11 14:22:24;;;;;;;;;;;;;;;6.95;37.33;99062.13;5355140;32;35315;-62
2023/03/11 14:25:27;;;;;;;;;;;;;;;7.00;37.31;99044.47;5380462;32;34809;-62
2023/03/11 14:28:30;;;;;;;;;;;;;;;6.85;37.58;99066.06;5370071;32;35547;-64
2023/03/11 14:31:33;;;;;;;;;;;;;;;6.70;38.04;99078.06;5346433;32;35789;-71
2023/03/11 14:34:38;;;;;;;;;;;;;;;7.22;37.15;99094.00;5375080;32;37348;-62
2023/03/11 14:37:40;;;;;;;;;;;;;;;6.91;37.43;99092.78;5374127;32;45432;-72
2023/03/11 14:40:42;;;;;;;;;;;;;;;6.95;37.70;99078.63;5375528;32;36192;-73
2023/03/11 14:43:45;;;;;;;;;;;;;;;6.48;38.21;99099.84;5341371;32;36035;-62
2023/03/11 14:46:47;;;;;;;;;;;;;;;6.76;37.84;99098.66;5341596;32;35469;-63
2023/03/11 14:49:49;;;;;;;;;;;;;;;7.04;37.56;99111.34;5361316;32;36519;-72
2023/03/11 14:52:58;;;;;;;;;;;;;;;6.62;37.44;99116.69;5337159;32;35553;-61
2023/03/11 14:56:01;;;;;;;;;;;;;;;6.72;37.38;99111.00;5364250;32;35696;-64
2023/03/11 14:59:12;;;;;;;;;;;;;;;6.93;37.54;99121.44;5357458;32;35958;-73
2023/03/11 15:02:49;;;;;;;;;;;;;;;6.63;38.07;99134.88;5370619;32;45113;-61
2023/03/11 15:05:53;;;;;;;;;;;;;;;6.86;37.61;99131.28;5269344;32;36170;-61
2023/03/11 15:09:21;;;;;;;;;;;;;;;7.11;37.24;99125.00;5354383;32;36151;-63
2023/03/11 15:12:52;;;;;;;;;;;;;;;7.22;37.03;99160.19;5357482;32;35587;-71
2023/03/11 15:15:56;;;;;;;;;;;;;;;7.26;36.90;99166.09;5345261;32;35361;-62
2023/03/11 15:18:59;;;;;;;;;;;;;;;6.64;37.83;99164.50;5378120;32;36153;-68
2023/03/11 15:22:06;;;;;;;;;;;;;;;6.82;37.42;99176.72;5346431;32;35592;-61
2023/03/11 15:25:18;;;;;;;;;;;;;;;6.73;37.64;99161.47;5332381;32;35169;-71
2023/03/11 15:28:24;;;;;;;;;;;;;;;6.45;38.00;99180.91;5372887;32;34776;-62
2023/03/11 15:31:30;;;;;;;;;;;;;;;6.37;37.80;99171.69;5378782;32;36725;-62
2023/03/11 15:34:32;;;;;;;;;;;;;;;6.29;37.96;99166.78;5376935;32;35069;-71
2023/03/11 15:37:34;;;;;;;;;;;;;;;6.43;37.69;99190.56;5349968;32;35574;-61
2023/03/11 15:40:36;;;;;;;;;;;;;;;6.44;37.51;99187.06;5347718;32;36163;-62
2023/03/11 15:43:46;;;;;;;;;;;;;;;6.10;38.42;99181.50;5371242;32;44673;-62
2023/03/11 15:46:48;;;;;;;;;;;;;;;6.86;37.05;99187.91;5350442;32;36727;-69
2023/03/11 15:49:50;;;;;;;;;;;;;;;6.57;37.82;99199.56;5368456;32;35650;-71
2023/03/11 15:52:53;;;;;;;;;;;;;;;6.38;38.14;99196.91;5342687;32;36553;-62
2023/03/11 15:56:01;;;;;;;;;;;;;;;6.60;38.15;99202.06;5359663;32;35563;-62
2023/03/11 15:59:15;;;;;;;;;;;;;;;6.57;38.33;99218.72;5361760;32;45583;-63
2023/03/11 16:02:21;;;;;;;;;;;;;;;6.86;37.30;99222.72;5359120;32;36080;-72
2023/03/11 16:05:23;;;;;;;;;;;;;;;6.95;36.78;99237.97;5350364;32;36254;-63
2023/03/11 16:08:25;;;;;;;;;;;;;;;6.93;36.83;99242.44;5353192;32;35431;-63
2023/03/11 16:11:31;;;;;;;;;;;;;;;7.18;36.52;99236.16;5355257;32;37080;-73